PASA

Savoonga Airport

Airport
ICAO code
PASA
IATA Code
SVA
Summary
ICAO Region
NAM
ICAO Territory
Location

, Alaska

Serving
Savoonga
Elevation
53 ft
Coordinates
63° 41' 11" N , 170° 29' 35" W
Metar
PASA 171656Z AUTO 25011KT 10SM CLR 06/03 A3009 RMK AO2 SLP189 T00560033

Runways

Designator Length Width Surface Rops
5/23 1341 30 GVL No/No

Airport map

Aerial View

SKYbrary Partners:

Safety knowledge contributed by: